Staples, Texas
Current Conditions -  °F | °C
As of 10:47 AM on Saturday 22 Nov 2014 (Local Time) from KHYI Reporting Station
Overcast Overcast  
Wind Chill: 66°   Ceiling: 1100
Heat Index: 66°   Visibility: 7mi
Dew Point: 63°   Wind: 15mph
Humidity: 88%   Direction: 110°ESE
Pressure: 29.96"   Gusts: NA
Location:  29.78°N, 97.84°W
Report Text: KHYI 221647Z 11013KT 7SM OVC011 19/17 A2996
Loading
Personal Weather Stations






























Interactive Weather Map New forecast layout! Learn more

10-Day Weather Forecast

Advertisements
Track Severe Weather on mobile